sensor_id;sensor_type;location;lat;lon;timestamp;P1;durP1;ratioP1;P2;durP2;ratioP2
17832;SDS011;9041;49.718;21.798;2023-05-07T00:00:35;36.42;;;19.10;;
17832;SDS011;9041;49.718;21.798;2023-05-07T00:03:01;39.15;;;20.00;;
17832;SDS011;9041;49.718;21.798;2023-05-07T00:05:28;34.92;;;18.50;;
17832;SDS011;9041;49.718;21.798;2023-05-07T00:07:55;40.17;;;19.98;;
17832;SDS011;9041;49.718;21.798;2023-05-07T00:10:22;39.58;;;20.05;;
17832;SDS011;9041;49.718;21.798;2023-05-07T00:12:50;35.42;;;19.25;;
17832;SDS011;9041;49.718;21.798;2023-05-07T00:15:19;40.58;;;20.70;;
17832;SDS011;9041;49.718;21.798;2023-05-07T00:17:48;34.65;;;19.15;;
17832;SDS011;9041;49.718;21.798;2023-05-07T00:20:15;40.33;;;19.83;;
17832;SDS011;9041;49.718;21.798;2023-05-07T00:22:41;38.60;;;20.00;;
17832;SDS011;9041;49.718;21.798;2023-05-07T00:25:08;43.53;;;20.17;;
17832;SDS011;9041;49.718;21.798;2023-05-07T00:27:35;45.30;;;21.45;;
17832;SDS011;9041;49.718;21.798;2023-05-07T00:30:02;35.95;;;19.40;;
17832;SDS011;9041;49.718;21.798;2023-05-07T00:32:29;43.85;;;21.83;;
17832;SDS011;9041;49.718;21.798;2023-05-07T00:34:57;43.75;;;21.25;;
17832;SDS011;9041;49.718;21.798;2023-05-07T00:37:23;40.53;;;20.50;;
17832;SDS011;9041;49.718;21.798;2023-05-07T00:39:51;38.63;;;19.90;;
17832;SDS011;9041;49.718;21.798;2023-05-07T00:42:17;43.70;;;21.20;;
17832;SDS011;9041;49.718;21.798;2023-05-07T00:44:44;39.33;;;20.75;;
17832;SDS011;9041;49.718;21.798;2023-05-07T00:47:12;43.00;;;22.67;;
17832;SDS011;9041;49.718;21.798;2023-05-07T00:49:41;42.33;;;21.85;;
17832;SDS011;9041;49.718;21.798;2023-05-07T00:52:11;43.35;;;21.27;;
17832;SDS011;9041;49.718;21.798;2023-05-07T00:54:40;44.10;;;21.17;;
17832;SDS011;9041;49.718;21.798;2023-05-07T00:57:07;43.50;;;21.25;;
17832;SDS011;9041;49.718;21.798;2023-05-07T00:59:36;45.08;;;22.30;;
17832;SDS011;9041;49.718;21.798;2023-05-07T01:02:03;40.88;;;20.77;;
17832;SDS011;9041;49.718;21.798;2023-05-07T01:04:30;40.65;;;21.13;;
17832;SDS011;9041;49.718;21.798;2023-05-07T01:06:57;39.67;;;20.48;;
17832;SDS011;9041;49.718;21.798;2023-05-07T01:09:26;44.13;;;21.63;;
17832;SDS011;9041;49.718;21.798;2023-05-07T01:11:53;42.05;;;21.38;;
17832;SDS011;9041;49.718;21.798;2023-05-07T01:14:20;43.92;;;20.35;;
17832;SDS011;9041;49.718;21.798;2023-05-07T01:16:47;39.88;;;20.70;;
17832;SDS011;9041;49.718;21.798;2023-05-07T01:19:16;41.17;;;19.48;;
17832;SDS011;9041;49.718;21.798;2023-05-07T01:21:46;38.58;;;20.02;;
17832;SDS011;9041;49.718;21.798;2023-05-07T01:24:15;40.03;;;20.45;;
17832;SDS011;9041;49.718;21.798;2023-05-07T01:26:42;37.72;;;18.67;;
17832;SDS011;9041;49.718;21.798;2023-05-07T01:29:09;39.35;;;19.15;;
17832;SDS011;9041;49.718;21.798;2023-05-07T01:31:35;37.67;;;18.92;;
17832;SDS011;9041;49.718;21.798;2023-05-07T01:34:03;36.28;;;19.52;;
17832;SDS011;9041;49.718;21.798;2023-05-07T01:36:30;40.55;;;21.00;;
17832;SDS011;9041;49.718;21.798;2023-05-07T01:38:58;37.13;;;18.55;;
17832;SDS011;9041;49.718;21.798;2023-05-07T01:41:26;45.22;;;19.50;;
17832;SDS011;9041;49.718;21.798;2023-05-07T01:43:54;43.42;;;20.40;;
17832;SDS011;9041;49.718;21.798;2023-05-07T01:46:21;38.70;;;19.67;;
17832;SDS011;9041;49.718;21.798;2023-05-07T01:48:48;38.05;;;18.25;;
17832;SDS011;9041;49.718;21.798;2023-05-07T01:51:16;39.00;;;19.63;;
17832;SDS011;9041;49.718;21.798;2023-05-07T01:53:44;39.35;;;18.58;;
17832;SDS011;9041;49.718;21.798;2023-05-07T01:56:15;36.70;;;18.33;;
17832;SDS011;9041;49.718;21.798;2023-05-07T01:58:44;34.83;;;17.67;;
17832;SDS011;9041;49.718;21.798;2023-05-07T02:01:11;36.28;;;19.10;;
17832;SDS011;9041;49.718;21.798;2023-05-07T02:03:38;40.92;;;20.83;;
17832;SDS011;9041;49.718;21.798;2023-05-07T02:06:05;37.40;;;18.55;;
17832;SDS011;9041;49.718;21.798;2023-05-07T02:08:32;39.40;;;18.90;;
17832;SDS011;9041;49.718;21.798;2023-05-07T02:10:59;40.05;;;18.80;;
17832;SDS011;9041;49.718;21.798;2023-05-07T02:13:26;35.20;;;18.75;;
17832;SDS011;9041;49.718;21.798;2023-05-07T02:15:56;36.60;;;19.35;;
17832;SDS011;9041;49.718;21.798;2023-05-07T02:18:23;37.63;;;18.65;;
17832;SDS011;9041;49.718;21.798;2023-05-07T02:20:50;38.42;;;17.50;;
17832;SDS011;9041;49.718;21.798;2023-05-07T02:23:16;32.65;;;17.05;;
17832;SDS011;9041;49.718;21.798;2023-05-07T02:25:43;41.42;;;18.33;;
17832;SDS011;9041;49.718;21.798;2023-05-07T02:28:11;37.60;;;17.17;;
17832;SDS011;9041;49.718;21.798;2023-05-07T02:30:37;41.78;;;18.65;;
17832;SDS011;9041;49.718;21.798;2023-05-07T02:33:08;35.50;;;17.20;;
17832;SDS011;9041;49.718;21.798;2023-05-07T02:35:37;36.28;;;17.92;;
17832;SDS011;9041;49.718;21.798;2023-05-07T02:38:04;37.88;;;17.23;;
17832;SDS011;9041;49.718;21.798;2023-05-07T02:40:30;38.55;;;17.38;;
17832;SDS011;9041;49.718;21.798;2023-05-07T02:42:58;40.00;;;18.52;;
17832;SDS011;9041;49.718;21.798;2023-05-07T02:45:25;39.83;;;18.65;;
17832;SDS011;9041;49.718;21.798;2023-05-07T02:47:52;41.90;;;17.80;;
17832;SDS011;9041;49.718;21.798;2023-05-07T02:50:21;38.17;;;18.58;;
17832;SDS011;9041;49.718;21.798;2023-05-07T02:52:48;39.58;;;18.65;;
17832;SDS011;9041;49.718;21.798;2023-05-07T02:55:15;41.42;;;18.95;;
17832;SDS011;9041;49.718;21.798;2023-05-07T02:57:42;39.70;;;19.33;;
17832;SDS011;9041;49.718;21.798;2023-05-07T03:00:13;43.72;;;20.00;;
17832;SDS011;9041;49.718;21.798;2023-05-07T03:02:41;41.83;;;18.85;;
17832;SDS011;9041;49.718;21.798;2023-05-07T03:05:08;49.28;;;20.13;;
17832;SDS011;9041;49.718;21.798;2023-05-07T03:07:36;45.33;;;19.55;;
17832;SDS011;9041;49.718;21.798;2023-05-07T03:10:03;40.05;;;19.70;;
17832;SDS011;9041;49.718;21.798;2023-05-07T03:12:30;40.78;;;19.27;;
17832;SDS011;9041;49.718;21.798;2023-05-07T03:14:57;39.83;;;19.27;;
17832;SDS011;9041;49.718;21.798;2023-05-07T03:17:24;47.70;;;19.38;;
17832;SDS011;9041;49.718;21.798;2023-05-07T03:19:51;44.92;;;20.02;;
17832;SDS011;9041;49.718;21.798;2023-05-07T03:22:18;43.58;;;19.45;;
17832;SDS011;9041;49.718;21.798;2023-05-07T03:24:46;44.28;;;18.73;;
17832;SDS011;9041;49.718;21.798;2023-05-07T03:27:13;41.15;;;18.77;;
17832;SDS011;9041;49.718;21.798;2023-05-07T03:29:40;40.83;;;18.35;;
17832;SDS011;9041;49.718;21.798;2023-05-07T03:32:07;39.75;;;18.77;;
17832;SDS011;9041;49.718;21.798;2023-05-07T03:34:34;36.33;;;17.08;;
17832;SDS011;9041;49.718;21.798;2023-05-07T03:37:01;38.42;;;17.02;;
17832;SDS011;9041;49.718;21.798;2023-05-07T03:39:27;35.13;;;15.57;;
17832;SDS011;9041;49.718;21.798;2023-05-07T03:41:56;31.27;;;13.88;;
17832;SDS011;9041;49.718;21.798;2023-05-07T03:44:23;30.92;;;14.00;;
17832;SDS011;9041;49.718;21.798;2023-05-07T03:46:50;36.45;;;15.07;;
17832;SDS011;9041;49.718;21.798;2023-05-07T03:49:18;32.47;;;14.90;;
17832;SDS011;9041;49.718;21.798;2023-05-07T03:51:45;31.20;;;13.95;;
17832;SDS011;9041;49.718;21.798;2023-05-07T03:54:11;32.63;;;13.68;;
17832;SDS011;9041;49.718;21.798;2023-05-07T03:56:38;34.58;;;13.75;;
17832;SDS011;9041;49.718;21.798;2023-05-07T03:59:07;30.65;;;12.60;;
17832;SDS011;9041;49.718;21.798;2023-05-07T04:01:34;28.35;;;12.55;;
17832;SDS011;9041;49.718;21.798;2023-05-07T04:04:01;34.13;;;12.70;;
17832;SDS011;9041;49.718;21.798;2023-05-07T04:06:28;27.95;;;12.00;;
17832;SDS011;9041;49.718;21.798;2023-05-07T04:08:55;25.40;;;10.73;;
17832;SDS011;9041;49.718;21.798;2023-05-07T04:11:22;28.95;;;11.13;;
17832;SDS011;9041;49.718;21.798;2023-05-07T04:13:49;25.83;;;11.35;;
17832;SDS011;9041;49.718;21.798;2023-05-07T04:16:17;24.70;;;11.77;;
17832;SDS011;9041;49.718;21.798;2023-05-07T04:18:44;32.50;;;12.45;;
17832;SDS011;9041;49.718;21.798;2023-05-07T04:21:14;26.77;;;10.68;;
17832;SDS011;9041;49.718;21.798;2023-05-07T04:23:42;27.27;;;11.15;;
17832;SDS011;9041;49.718;21.798;2023-05-07T04:26:08;23.60;;;10.85;;
17832;SDS011;9041;49.718;21.798;2023-05-07T04:28:35;26.52;;;11.18;;
17832;SDS011;9041;49.718;21.798;2023-05-07T04:31:02;19.60;;;10.13;;
17832;SDS011;9041;49.718;21.798;2023-05-07T04:33:30;23.15;;;11.35;;
17832;SDS011;9041;49.718;21.798;2023-05-07T04:35:58;20.35;;;9.65;;
17832;SDS011;9041;49.718;21.798;2023-05-07T04:38:45;21.48;;;9.43;;
17832;SDS011;9041;49.718;21.798;2023-05-07T04:41:12;21.60;;;10.07;;
17832;SDS011;9041;49.718;21.798;2023-05-07T04:43:40;19.98;;;9.77;;
17832;SDS011;9041;49.718;21.798;2023-05-07T04:46:06;23.30;;;9.23;;
17832;SDS011;9041;49.718;21.798;2023-05-07T04:48:35;20.33;;;9.20;;
17832;SDS011;9041;49.718;21.798;2023-05-07T04:51:02;19.42;;;8.45;;
17832;SDS011;9041;49.718;21.798;2023-05-07T04:53:29;17.63;;;8.10;;
17832;SDS011;9041;49.718;21.798;2023-05-07T04:55:56;22.30;;;9.43;;
17832;SDS011;9041;49.718;21.798;2023-05-07T04:58:23;15.30;;;8.10;;
17832;SDS011;9041;49.718;21.798;2023-05-07T05:00:50;14.20;;;7.72;;
17832;SDS011;9041;49.718;21.798;2023-05-07T05:03:17;15.15;;;7.38;;
17832;SDS011;9041;49.718;21.798;2023-05-07T05:05:45;12.38;;;7.00;;
17832;SDS011;9041;49.718;21.798;2023-05-07T05:08:12;14.23;;;6.60;;
17832;SDS011;9041;49.718;21.798;2023-05-07T05:10:39;12.27;;;6.60;;
17832;SDS011;9041;49.718;21.798;2023-05-07T05:13:06;13.15;;;6.75;;
17832;SDS011;9041;49.718;21.798;2023-05-07T05:15:33;12.63;;;7.20;;
17832;SDS011;9041;49.718;21.798;2023-05-07T05:18:00;14.00;;;7.10;;
17832;SDS011;9041;49.718;21.798;2023-05-07T05:20:27;14.80;;;7.25;;
17832;SDS011;9041;49.718;21.798;2023-05-07T05:22:55;14.40;;;7.30;;
17832;SDS011;9041;49.718;21.798;2023-05-07T05:25:21;13.23;;;7.28;;
17832;SDS011;9041;49.718;21.798;2023-05-07T05:27:48;12.52;;;6.68;;
17832;SDS011;9041;49.718;21.798;2023-05-07T05:30:15;14.88;;;6.47;;
17832;SDS011;9041;49.718;21.798;2023-05-07T05:32:42;9.73;;;5.22;;
17832;SDS011;9041;49.718;21.798;2023-05-07T05:35:09;10.80;;;5.50;;
17832;SDS011;9041;49.718;21.798;2023-05-07T05:37:36;13.35;;;5.90;;
17832;SDS011;9041;49.718;21.798;2023-05-07T05:40:05;9.10;;;5.55;;
17832;SDS011;9041;49.718;21.798;2023-05-07T05:42:32;9.57;;;5.38;;
17832;SDS011;9041;49.718;21.798;2023-05-07T05:44:59;9.48;;;5.22;;
17832;SDS011;9041;49.718;21.798;2023-05-07T05:47:26;13.90;;;5.93;;
17832;SDS011;9041;49.718;21.798;2023-05-07T05:49:52;11.60;;;5.63;;
17832;SDS011;9041;49.718;21.798;2023-05-07T05:52:19;12.20;;;5.97;;
17832;SDS011;9041;49.718;21.798;2023-05-07T05:54:48;10.65;;;6.00;;
17832;SDS011;9041;49.718;21.798;2023-05-07T05:57:17;11.05;;;6.03;;
17832;SDS011;9041;49.718;21.798;2023-05-07T05:59:46;10.07;;;6.03;;
17832;SDS011;9041;49.718;21.798;2023-05-07T06:02:13;12.10;;;6.20;;
17832;SDS011;9041;49.718;21.798;2023-05-07T06:04:40;14.43;;;6.63;;
17832;SDS011;9041;49.718;21.798;2023-05-07T06:07:07;9.27;;;5.85;;
17832;SDS011;9041;49.718;21.798;2023-05-07T06:09:34;9.15;;;5.75;;
17832;SDS011;9041;49.718;21.798;2023-05-07T06:12:01;11.90;;;6.10;;
17832;SDS011;9041;49.718;21.798;2023-05-07T06:14:29;9.88;;;5.65;;
17832;SDS011;9041;49.718;21.798;2023-05-07T06:16:56;12.65;;;6.35;;
17832;SDS011;9041;49.718;21.798;2023-05-07T06:19:23;11.60;;;6.80;;
17832;SDS011;9041;49.718;21.798;2023-05-07T06:21:51;10.90;;;6.70;;
17832;SDS011;9041;49.718;21.798;2023-05-07T06:24:18;16.00;;;6.05;;
17832;SDS011;9041;49.718;21.798;2023-05-07T06:26:45;9.70;;;5.70;;
17832;SDS011;9041;49.718;21.798;2023-05-07T06:29:12;10.40;;;6.60;;
17832;SDS011;9041;49.718;21.798;2023-05-07T06:31:40;10.98;;;6.32;;
17832;SDS011;9041;49.718;21.798;2023-05-07T06:34:07;11.60;;;6.03;;
17832;SDS011;9041;49.718;21.798;2023-05-07T06:36:35;10.45;;;6.00;;
17832;SDS011;9041;49.718;21.798;2023-05-07T06:39:01;9.73;;;5.80;;
17832;SDS011;9041;49.718;21.798;2023-05-07T06:41:28;10.65;;;6.20;;
17832;SDS011;9041;49.718;21.798;2023-05-07T06:43:55;12.95;;;6.15;;
17832;SDS011;9041;49.718;21.798;2023-05-07T06:46:22;13.75;;;6.70;;
17832;SDS011;9041;49.718;21.798;2023-05-07T06:48:50;12.13;;;6.40;;
17832;SDS011;9041;49.718;21.798;2023-05-07T06:51:17;10.35;;;5.32;;
17832;SDS011;9041;49.718;21.798;2023-05-07T06:53:44;14.68;;;5.65;;
17832;SDS011;9041;49.718;21.798;2023-05-07T06:56:11;12.10;;;5.68;;
17832;SDS011;9041;49.718;21.798;2023-05-07T06:58:38;11.57;;;5.85;;
17832;SDS011;9041;49.718;21.798;2023-05-07T07:01:05;13.48;;;5.88;;
17832;SDS011;9041;49.718;21.798;2023-05-07T07:03:31;13.95;;;5.20;;
17832;SDS011;9041;49.718;21.798;2023-05-07T07:06:00;8.35;;;4.80;;
17832;SDS011;9041;49.718;21.798;2023-05-07T07:08:27;9.77;;;4.90;;
17832;SDS011;9041;49.718;21.798;2023-05-07T07:10:54;14.90;;;5.85;;
17832;SDS011;9041;49.718;21.798;2023-05-07T07:13:21;10.13;;;5.10;;
17832;SDS011;9041;49.718;21.798;2023-05-07T07:15:47;10.00;;;5.38;;
17832;SDS011;9041;49.718;21.798;2023-05-07T07:18:14;7.75;;;5.15;;
17832;SDS011;9041;49.718;21.798;2023-05-07T07:20:41;10.40;;;5.68;;
17832;SDS011;9041;49.718;21.798;2023-05-07T07:23:11;12.82;;;5.20;;
17832;SDS011;9041;49.718;21.798;2023-05-07T07:25:38;8.00;;;5.03;;
17832;SDS011;9041;49.718;21.798;2023-05-07T07:28:05;10.07;;;5.03;;
17832;SDS011;9041;49.718;21.798;2023-05-07T07:30:32;9.60;;;4.45;;
17832;SDS011;9041;49.718;21.798;2023-05-07T07:32:59;8.68;;;4.97;;
17832;SDS011;9041;49.718;21.798;2023-05-07T07:35:28;8.18;;;4.85;;
17832;SDS011;9041;49.718;21.798;2023-05-07T07:37:55;7.15;;;4.40;;
17832;SDS011;9041;49.718;21.798;2023-05-07T07:40:23;6.45;;;3.90;;
17832;SDS011;9041;49.718;21.798;2023-05-07T07:42:50;7.25;;;4.15;;
17832;SDS011;9041;49.718;21.798;2023-05-07T07:45:17;10.75;;;5.15;;
17832;SDS011;9041;49.718;21.798;2023-05-07T07:47:44;8.65;;;4.47;;
17832;SDS011;9041;49.718;21.798;2023-05-07T07:50:11;6.75;;;4.20;;
17832;SDS011;9041;49.718;21.798;2023-05-07T07:52:38;8.73;;;4.28;;
17832;SDS011;9041;49.718;21.798;2023-05-07T07:55:06;6.57;;;4.30;;
17832;SDS011;9041;49.718;21.798;2023-05-07T07:57:35;6.85;;;4.30;;
17832;SDS011;9041;49.718;21.798;2023-05-07T08:00:02;11.30;;;4.68;;
17832;SDS011;9041;49.718;21.798;2023-05-07T08:02:29;12.80;;;5.53;;
17832;SDS011;9041;49.718;21.798;2023-05-07T08:04:56;10.18;;;5.38;;
17832;SDS011;9041;49.718;21.798;2023-05-07T08:07:22;12.95;;;7.72;;
17832;SDS011;9041;49.718;21.798;2023-05-07T08:09:49;20.40;;;8.13;;
17832;SDS011;9041;49.718;21.798;2023-05-07T08:12:16;16.48;;;8.75;;
17832;SDS011;9041;49.718;21.798;2023-05-07T08:14:44;18.80;;;8.82;;
17832;SDS011;9041;49.718;21.798;2023-05-07T08:17:11;17.10;;;9.30;;
17832;SDS011;9041;49.718;21.798;2023-05-07T08:19:40;16.58;;;7.80;;
17832;SDS011;9041;49.718;21.798;2023-05-07T08:22:07;15.35;;;8.25;;
17832;SDS011;9041;49.718;21.798;2023-05-07T08:24:34;17.60;;;8.02;;
17832;SDS011;9041;49.718;21.798;2023-05-07T08:27:01;16.02;;;6.90;;
17832;SDS011;9041;49.718;21.798;2023-05-07T08:29:28;11.40;;;6.75;;
17832;SDS011;9041;49.718;21.798;2023-05-07T08:31:56;16.92;;;6.70;;
17832;SDS011;9041;49.718;21.798;2023-05-07T08:34:23;14.77;;;7.60;;
17832;SDS011;9041;49.718;21.798;2023-05-07T08:36:49;11.65;;;6.35;;
17832;SDS011;9041;49.718;21.798;2023-05-07T08:39:16;14.27;;;7.50;;
17832;SDS011;9041;49.718;21.798;2023-05-07T08:41:44;15.05;;;7.53;;
17832;SDS011;9041;49.718;21.798;2023-05-07T08:44:11;10.88;;;6.50;;
17832;SDS011;9041;49.718;21.798;2023-05-07T08:46:39;11.25;;;7.03;;
17832;SDS011;9041;49.718;21.798;2023-05-07T08:49:09;18.80;;;7.07;;
17832;SDS011;9041;49.718;21.798;2023-05-07T08:51:36;13.13;;;7.25;;
17832;SDS011;9041;49.718;21.798;2023-05-07T08:54:04;20.33;;;7.78;;
17832;SDS011;9041;49.718;21.798;2023-05-07T08:56:31;16.00;;;6.85;;
17832;SDS011;9041;49.718;21.798;2023-05-07T08:58:57;14.18;;;7.00;;
17832;SDS011;9041;49.718;21.798;2023-05-07T09:01:25;18.10;;;7.65;;
17832;SDS011;9041;49.718;21.798;2023-05-07T09:03:52;21.35;;;8.02;;
17832;SDS011;9041;49.718;21.798;2023-05-07T09:06:21;16.33;;;7.97;;
17832;SDS011;9041;49.718;21.798;2023-05-07T09:08:51;15.05;;;6.97;;
17832;SDS011;9041;49.718;21.798;2023-05-07T09:11:21;11.75;;;6.75;;
17832;SDS011;9041;49.718;21.798;2023-05-07T09:13:49;13.45;;;7.03;;
17832;SDS011;9041;49.718;21.798;2023-05-07T09:16:20;13.73;;;6.55;;
17832;SDS011;9041;49.718;21.798;2023-05-07T09:18:46;15.02;;;7.10;;
17832;SDS011;9041;49.718;21.798;2023-05-07T09:21:15;10.82;;;5.97;;
17832;SDS011;9041;49.718;21.798;2023-05-07T09:23:43;12.50;;;5.88;;
17832;SDS011;9041;49.718;21.798;2023-05-07T09:26:10;7.75;;;5.32;;
17832;SDS011;9041;49.718;21.798;2023-05-07T09:28:38;10.70;;;6.28;;
17832;SDS011;9041;49.718;21.798;2023-05-07T09:31:06;12.82;;;5.70;;
17832;SDS011;9041;49.718;21.798;2023-05-07T09:33:33;10.80;;;6.30;;
17832;SDS011;9041;49.718;21.798;2023-05-07T09:36:02;13.60;;;6.50;;
17832;SDS011;9041;49.718;21.798;2023-05-07T09:38:30;8.50;;;5.72;;
17832;SDS011;9041;49.718;21.798;2023-05-07T09:41:02;13.45;;;6.38;;
17832;SDS011;9041;49.718;21.798;2023-05-07T09:43:31;12.25;;;5.95;;
17832;SDS011;9041;49.718;21.798;2023-05-07T09:46:00;16.10;;;6.68;;
17832;SDS011;9041;49.718;21.798;2023-05-07T09:48:34;14.15;;;6.85;;
17832;SDS011;9041;49.718;21.798;2023-05-07T09:51:06;10.88;;;6.82;;
17832;SDS011;9041;49.718;21.798;2023-05-07T09:53:35;10.00;;;6.57;;
17832;SDS011;9041;49.718;21.798;2023-05-07T09:56:04;12.63;;;6.40;;
17832;SDS011;9041;49.718;21.798;2023-05-07T09:58:31;11.60;;;6.32;;
17832;SDS011;9041;49.718;21.798;2023-05-07T10:00:58;11.70;;;6.47;;
17832;SDS011;9041;49.718;21.798;2023-05-07T10:03:25;11.68;;;6.28;;
17832;SDS011;9041;49.718;21.798;2023-05-07T10:05:55;11.32;;;6.38;;
17832;SDS011;9041;49.718;21.798;2023-05-07T10:08:21;12.85;;;6.82;;
17832;SDS011;9041;49.718;21.798;2023-05-07T10:10:48;11.70;;;6.72;;
17832;SDS011;9041;49.718;21.798;2023-05-07T10:13:16;13.85;;;6.18;;
17832;SDS011;9041;49.718;21.798;2023-05-07T10:15:43;12.48;;;6.10;;
17832;SDS011;9041;49.718;21.798;2023-05-07T10:18:10;11.93;;;6.10;;
17832;SDS011;9041;49.718;21.798;2023-05-07T10:20:38;12.75;;;6.00;;
17832;SDS011;9041;49.718;21.798;2023-05-07T10:23:05;8.13;;;5.45;;
17832;SDS011;9041;49.718;21.798;2023-05-07T10:25:33;9.70;;;5.80;;
17832;SDS011;9041;49.718;21.798;2023-05-07T10:28:01;19.42;;;6.30;;
17832;SDS011;9041;49.718;21.798;2023-05-07T10:30:33;10.60;;;5.82;;
17832;SDS011;9041;49.718;21.798;2023-05-07T10:33:05;12.60;;;5.50;;
17832;SDS011;9041;49.718;21.798;2023-05-07T10:35:36;10.60;;;5.95;;
17832;SDS011;9041;49.718;21.798;2023-05-07T10:38:05;13.63;;;6.03;;
17832;SDS011;9041;49.718;21.798;2023-05-07T10:40:33;12.45;;;5.80;;
17832;SDS011;9041;49.718;21.798;2023-05-07T10:43:00;13.07;;;6.32;;
17832;SDS011;9041;49.718;21.798;2023-05-07T10:45:30;16.45;;;6.07;;
17832;SDS011;9041;49.718;21.798;2023-05-07T10:48:09;14.45;;;6.60;;
17832;SDS011;9041;49.718;21.798;2023-05-07T10:50:37;12.50;;;6.30;;
17832;SDS011;9041;49.718;21.798;2023-05-07T10:53:22;12.88;;;6.47;;
17832;SDS011;9041;49.718;21.798;2023-05-07T10:55:52;12.52;;;6.68;;
17832;SDS011;9041;49.718;21.798;2023-05-07T10:58:52;11.10;;;5.88;;
17832;SDS011;9041;49.718;21.798;2023-05-07T11:04:17;15.55;;;6.80;;
17832;SDS011;9041;49.718;21.798;2023-05-07T11:10:02;9.90;;;6.40;;
17832;SDS011;9041;49.718;21.798;2023-05-07T11:12:52;11.20;;;6.07;;
17832;SDS011;9041;49.718;21.798;2023-05-07T11:15:36;10.10;;;6.50;;
17832;SDS011;9041;49.718;21.798;2023-05-07T11:18:08;10.75;;;6.10;;
17832;SDS011;9041;49.718;21.798;2023-05-07T11:26:47;10.25;;;6.47;;
17832;SDS011;9041;49.718;21.798;2023-05-07T11:29:15;10.30;;;6.00;;
17832;SDS011;9041;49.718;21.798;2023-05-07T11:31:42;11.07;;;5.72;;
17832;SDS011;9041;49.718;21.798;2023-05-07T11:34:11;10.10;;;5.70;;
17832;SDS011;9041;49.718;21.798;2023-05-07T11:36:41;12.38;;;5.85;;
17832;SDS011;9041;49.718;21.798;2023-05-07T11:39:25;9.52;;;5.55;;
17832;SDS011;9041;49.718;21.798;2023-05-07T11:41:53;8.50;;;5.32;;
17832;SDS011;9041;49.718;21.798;2023-05-07T11:44:20;9.90;;;5.63;;
17832;SDS011;9041;49.718;21.798;2023-05-07T11:46:46;11.93;;;5.20;;
17832;SDS011;9041;49.718;21.798;2023-05-07T11:49:15;8.75;;;5.18;;
17832;SDS011;9041;49.718;21.798;2023-05-07T11:51:42;9.40;;;5.13;;
17832;SDS011;9041;49.718;21.798;2023-05-07T11:54:10;13.07;;;5.88;;
17832;SDS011;9041;49.718;21.798;2023-05-07T11:56:38;10.20;;;5.75;;
17832;SDS011;9041;49.718;21.798;2023-05-07T11:59:05;10.93;;;5.30;;
17832;SDS011;9041;49.718;21.798;2023-05-07T12:01:34;15.15;;;5.30;;
17832;SDS011;9041;49.718;21.798;2023-05-07T12:04:02;9.93;;;5.85;;
17832;SDS011;9041;49.718;21.798;2023-05-07T12:06:30;7.88;;;5.03;;
17832;SDS011;9041;49.718;21.798;2023-05-07T12:08:57;10.88;;;5.25;;
17832;SDS011;9041;49.718;21.798;2023-05-07T12:11:25;9.80;;;5.40;;
17832;SDS011;9041;49.718;21.798;2023-05-07T12:13:53;12.07;;;5.55;;
17832;SDS011;9041;49.718;21.798;2023-05-07T12:16:20;9.20;;;5.47;;
17832;SDS011;9041;49.718;21.798;2023-05-07T12:18:47;10.90;;;5.95;;
17832;SDS011;9041;49.718;21.798;2023-05-07T12:21:14;10.98;;;5.78;;
17832;SDS011;9041;49.718;21.798;2023-05-07T12:23:43;16.98;;;5.55;;
17832;SDS011;9041;49.718;21.798;2023-05-07T12:26:10;8.32;;;5.40;;
17832;SDS011;9041;49.718;21.798;2023-05-07T12:28:37;9.52;;;5.80;;
17832;SDS011;9041;49.718;21.798;2023-05-07T12:31:04;9.63;;;5.68;;
17832;SDS011;9041;49.718;21.798;2023-05-07T12:33:34;11.45;;;5.82;;
17832;SDS011;9041;49.718;21.798;2023-05-07T12:36:05;14.80;;;6.20;;
17832;SDS011;9041;49.718;21.798;2023-05-07T12:38:36;8.80;;;5.53;;
17832;SDS011;9041;49.718;21.798;2023-05-07T12:41:07;9.38;;;5.30;;
17832;SDS011;9041;49.718;21.798;2023-05-07T12:43:35;9.98;;;5.80;;
17832;SDS011;9041;49.718;21.798;2023-05-07T12:46:04;11.57;;;5.18;;
17832;SDS011;9041;49.718;21.798;2023-05-07T12:48:31;13.00;;;6.15;;
17832;SDS011;9041;49.718;21.798;2023-05-07T12:50:59;9.30;;;5.25;;
17832;SDS011;9041;49.718;21.798;2023-05-07T12:53:27;10.93;;;5.70;;
17832;SDS011;9041;49.718;21.798;2023-05-07T12:55:54;9.43;;;5.88;;
17832;SDS011;9041;49.718;21.798;2023-05-07T12:58:25;8.30;;;5.07;;
17832;SDS011;9041;49.718;21.798;2023-05-07T13:00:53;8.38;;;4.90;;
17832;SDS011;9041;49.718;21.798;2023-05-07T13:03:24;12.55;;;5.90;;
17832;SDS011;9041;49.718;21.798;2023-05-07T13:05:52;12.95;;;6.10;;
17832;SDS011;9041;49.718;21.798;2023-05-07T13:08:23;11.15;;;5.93;;
17832;SDS011;9041;49.718;21.798;2023-05-07T13:10:50;9.73;;;5.72;;
17832;SDS011;9041;49.718;21.798;2023-05-07T13:13:17;11.95;;;6.05;;
17832;SDS011;9041;49.718;21.798;2023-05-07T13:15:45;11.00;;;5.85;;
17832;SDS011;9041;49.718;21.798;2023-05-07T13:18:12;9.75;;;5.30;;
17832;SDS011;9041;49.718;21.798;2023-05-07T13:20:39;9.55;;;5.30;;
17832;SDS011;9041;49.718;21.798;2023-05-07T13:23:06;9.00;;;5.68;;
17832;SDS011;9041;49.718;21.798;2023-05-07T13:25:33;11.15;;;5.85;;
17832;SDS011;9041;49.718;21.798;2023-05-07T13:28:00;10.75;;;5.22;;
17832;SDS011;9041;49.718;21.798;2023-05-07T13:30:27;13.63;;;5.68;;
17832;SDS011;9041;49.718;21.798;2023-05-07T13:32:56;13.20;;;6.13;;
17832;SDS011;9041;49.718;21.798;2023-05-07T13:35:23;11.73;;;5.65;;
17832;SDS011;9041;49.718;21.798;2023-05-07T13:37:49;9.55;;;5.78;;
17832;SDS011;9041;49.718;21.798;2023-05-07T13:40:17;10.18;;;5.70;;
17832;SDS011;9041;49.718;21.798;2023-05-07T13:42:44;10.55;;;6.22;;
17832;SDS011;9041;49.718;21.798;2023-05-07T13:45:11;10.10;;;5.32;;
17832;SDS011;9041;49.718;21.798;2023-05-07T13:47:39;10.63;;;5.85;;
17832;SDS011;9041;49.718;21.798;2023-05-07T13:50:08;13.30;;;5.88;;
17832;SDS011;9041;49.718;21.798;2023-05-07T13:52:36;9.57;;;5.70;;
17832;SDS011;9041;49.718;21.798;2023-05-07T13:55:05;9.02;;;5.05;;
17832;SDS011;9041;49.718;21.798;2023-05-07T13:57:33;9.82;;;5.57;;
17832;SDS011;9041;49.718;21.798;2023-05-07T14:00:00;10.30;;;5.18;;
17832;SDS011;9041;49.718;21.798;2023-05-07T14:02:26;9.00;;;4.97;;
17832;SDS011;9041;49.718;21.798;2023-05-07T14:04:53;9.35;;;5.00;;
17832;SDS011;9041;49.718;21.798;2023-05-07T14:07:21;8.52;;;5.18;;
17832;SDS011;9041;49.718;21.798;2023-05-07T14:09:49;9.05;;;5.35;;
17832;SDS011;9041;49.718;21.798;2023-05-07T14:12:16;7.70;;;5.00;;
17832;SDS011;9041;49.718;21.798;2023-05-07T14:14:42;8.88;;;5.05;;
17832;SDS011;9041;49.718;21.798;2023-05-07T14:17:10;14.48;;;5.45;;
17832;SDS011;9041;49.718;21.798;2023-05-07T14:19:37;7.82;;;5.00;;
17832;SDS011;9041;49.718;21.798;2023-05-07T14:22:04;16.60;;;5.20;;
17832;SDS011;9041;49.718;21.798;2023-05-07T14:24:32;8.90;;;5.38;;
17832;SDS011;9041;49.718;21.798;2023-05-07T14:26:59;11.80;;;5.75;;
17832;SDS011;9041;49.718;21.798;2023-05-07T14:29:26;9.95;;;5.47;;
17832;SDS011;9041;49.718;21.798;2023-05-07T14:31:52;9.18;;;5.93;;
17832;SDS011;9041;49.718;21.798;2023-05-07T14:34:19;13.50;;;5.60;;
17832;SDS011;9041;49.718;21.798;2023-05-07T14:36:46;10.70;;;5.13;;
17832;SDS011;9041;49.718;21.798;2023-05-07T14:39:13;10.20;;;5.35;;
17832;SDS011;9041;49.718;21.798;2023-05-07T14:41:41;11.05;;;5.22;;
17832;SDS011;9041;49.718;21.798;2023-05-07T14:44:08;10.10;;;5.50;;
17832;SDS011;9041;49.718;21.798;2023-05-07T14:46:34;12.57;;;5.50;;
17832;SDS011;9041;49.718;21.798;2023-05-07T14:49:01;18.67;;;7.22;;